Time,TemperatureF,DewpointF,PressureIn,WindDirection,WindDirectionDegrees,WindSpeedMPH,WindSpeedGustMPH,Humidity,HourlyPrecipIn,Conditions,Clouds,dailyrainin,SoftwareType,DateUTC
2013-09-19 00:00:00,64.7,44.0,29.81,NNW,342,0.0,0.0,47,0.00,,-RA,0.00,VWS V15.00,2013-09-19 07:00:00,
2013-09-19 00:03:00,62.8,44.4,29.81,NNW,342,0.0,0.0,51,0.00,,CLR,0.00,VWS V14.01,2013-09-19 07:03:00,
2013-09-19 00:08:00,62.6,44.2,29.81,NNW,342,1.0,1.0,51,0.00,,CLR,0.00,VWS V14.01,2013-09-19 07:08:00,
2013-09-19 00:13:00,62.5,44.2,29.81,NNW,342,0.0,0.0,51,0.00,,CLR,0.00,VWS V14.01,2013-09-19 07:13:00,
2013-09-19 00:18:00,62.5,44.2,29.80,NNW,342,0.0,0.0,51,0.00,,CLR,0.00,VWS V14.01,2013-09-19 07:18:00,
2013-09-19 00:23:00,62.4,45.1,29.80,NNW,342,0.0,0.0,53,0.00,,CLR,0.00,VWS V14.01,2013-09-19 07:23:00,
2013-09-19 00:28:00,62.2,44.4,29.81,NNW,342,0.0,0.0,52,0.00,,CLR,0.00,VWS V14.01,2013-09-19 07:28:00,
2013-09-19 00:33:00,62.0,44.7,29.81,NNW,342,0.0,0.0,53,0.00,,CLR,0.00,VWS V14.01,2013-09-19 07:33:00,
2013-09-19 00:38:00,61.9,44.6,29.81,NNW,342,0.0,0.0,53,0.00,,CLR,0.00,VWS V14.01,2013-09-19 07:38:00,
2013-09-19 00:43:00,61.7,44.9,29.81,NNW,342,0.0,0.0,54,0.00,,CLR,0.00,VWS V14.01,2013-09-19 07:43:00,
2013-09-19 00:48:00,61.5,44.7,29.81,NNW,342,0.0,0.0,54,0.00,,CLR,0.00,VWS V14.01,2013-09-19 07:48:00,
2013-09-19 00:53:00,61.3,45.0,29.81,NNW,342,0.0,0.0,55,0.00,,CLR,0.00,VWS V14.01,2013-09-19 07:53:00,
2013-09-19 00:58:00,61.1,44.8,29.81,NNW,342,1.0,1.0,55,0.00,,CLR,0.00,VWS V14.01,2013-09-19 07:58:00,
2013-09-19 01:00:00,62.9,44.0,29.80,NNW,342,0.0,0.0,50,0.00,,-RA,0.00,VWS V15.00,2013-09-19 08:00:00,
2013-09-19 01:03:00,61.1,44.8,29.81,NNW,342,1.0,1.0,55,0.00,,CLR,0.00,VWS V14.01,2013-09-19 08:03:00,
2013-09-19 01:08:00,61.1,44.3,29.81,NNW,342,2.0,2.0,54,0.00,,CLR,0.00,VWS V14.01,2013-09-19 08:08:00,
2013-09-19 01:13:00,61.2,44.4,29.81,NNW,342,0.0,0.0,54,0.00,,CLR,0.00,VWS V14.01,2013-09-19 08:13:00,
2013-09-19 01:18:00,61.3,44.0,29.81,NNW,342,1.0,1.0,53,0.00,,CLR,0.00,VWS V14.01,2013-09-19 08:18:00,
2013-09-19 01:24:00,61.3,44.5,29.81,NNW,342,1.0,1.0,54,0.00,,CLR,0.00,VWS V14.01,2013-09-19 08:24:00,
2013-09-19 01:29:00,61.5,44.2,29.80,NNW,342,2.0,2.0,53,0.00,,CLR,0.00,VWS V14.01,2013-09-19 08:29:00,
2013-09-19 01:34:00,61.6,44.3,29.80,NNW,342,1.0,1.0,53,0.00,,CLR,0.00,VWS V14.01,2013-09-19 08:34:00,
2013-09-19 01:39:00,61.5,44.2,29.81,NNW,342,0.0,0.0,53,0.00,,CLR,0.00,VWS V14.01,2013-09-19 08:39:00,
2013-09-19 01:44:00,61.5,43.7,29.81,NNW,342,0.0,0.0,52,0.00,,CLR,0.00,VWS V14.01,2013-09-19 08:44:00,
2013-09-19 01:49:00,61.5,43.2,29.81,NNW,342,1.0,1.0,51,0.00,,CLR,0.00,VWS V14.01,2013-09-19 08:49:00,
2013-09-19 01:54:00,61.5,44.2,29.81,NNW,342,0.0,0.0,53,0.00,,CLR,0.00,VWS V14.01,2013-09-19 08:54:00,
2013-09-19 01:59:00,61.2,44.0,29.81,NNW,342,0.0,0.0,53,0.00,,CLR,0.00,VWS V14.01,2013-09-19 08:59:00,
2013-09-19 02:00:00,61.1,44.8,29.81,NNW,342,0.0,0.0,55,0.00,,-RA,0.00,VWS V15.00,2013-09-19 09:00:00,
2013-09-19 02:04:00,60.9,43.7,29.81,NNW,342,0.0,0.0,53,0.00,,CLR,0.00,VWS V14.01,2013-09-19 09:04:00,
2013-09-19 02:09:00,60.3,43.6,29.81,NNW,342,0.0,0.0,54,0.00,,CLR,0.00,VWS V14.01,2013-09-19 09:09:00,
2013-09-19 02:14:00,60.1,43.9,29.81,NNW,342,0.0,0.0,55,0.00,,CLR,0.00,VWS V14.01,2013-09-19 09:14:00,
2013-09-19 02:19:00,59.9,43.7,29.81,NNW,342,0.0,0.0,55,0.00,,CLR,0.00,VWS V14.01,2013-09-19 09:19:00,
2013-09-19 02:24:00,59.7,43.5,29.81,NNW,342,0.0,0.0,55,0.00,,CLR,0.00,VWS V14.01,2013-09-19 09:24:00,
2013-09-19 02:29:00,59.5,43.3,29.80,NNW,342,0.0,0.0,55,0.00,,CLR,0.00,VWS V14.01,2013-09-19 09:29:00,
2013-09-19 02:34:00,59.3,42.7,29.80,NNW,342,0.0,0.0,54,0.00,,CLR,0.00,VWS V14.01,2013-09-19 09:34:00,
2013-09-19 02:39:00,59.3,43.2,29.80,NNW,342,0.0,0.0,55,0.00,,CLR,0.00,VWS V14.01,2013-09-19 09:39:00,
2013-09-19 02:45:00,59.2,43.1,29.80,NNW,342,2.0,2.0,55,0.00,,CLR,0.00,VWS V14.01,2013-09-19 09:45:00,
2013-09-19 02:50:00,59.2,42.6,29.80,NNW,342,0.0,0.0,54,0.00,,CLR,0.00,VWS V14.01,2013-09-19 09:50:00,
2013-09-19 02:55:00,59.3,42.7,29.80,NNW,342,0.0,0.0,54,0.00,,CLR,0.00,VWS V14.01,2013-09-19 09:55:00,
2013-09-19 03:00:00,59.2,43.1,29.80,NNW,342,1.0,1.0,55,0.00,,CLR,0.00,VWS V14.01,2013-09-19 10:00:00,
2013-09-19 03:05:00,59.1,43.0,29.80,NNW,342,0.0,0.0,55,0.00,,CLR,0.00,VWS V14.01,2013-09-19 10:05:00,
2013-09-19 03:10:00,59.1,43.4,29.80,NNW,342,0.0,0.0,56,0.00,,CLR,0.00,VWS V14.01,2013-09-19 10:10:00,
2013-09-19 03:15:00,59.1,43.4,29.80,NNW,342,1.0,1.0,56,0.00,,CLR,0.00,VWS V14.01,2013-09-19 10:15:00,
2013-09-19 03:20:00,59.2,43.5,29.80,NNW,342,0.0,0.0,56,0.00,,CLR,0.00,VWS V14.01,2013-09-19 10:20:00,
2013-09-19 03:25:00,59.3,43.6,29.80,NNW,342,0.0,0.0,56,0.00,,CLR,0.00,VWS V14.01,2013-09-19 10:25:00,
2013-09-19 03:30:00,59.5,43.3,29.80,NNW,342,1.0,1.0,55,0.00,,CLR,0.00,VWS V14.01,2013-09-19 10:30:00,
2013-09-19 03:35:00,59.5,43.3,29.80,NNW,342,0.0,0.0,55,0.00,,CLR,0.00,VWS V14.01,2013-09-19 10:35:00,
2013-09-19 03:40:00,59.5,43.3,29.80,NNW,342,0.0,0.0,55,0.00,,CLR,0.00,VWS V14.01,2013-09-19 10:40:00,
2013-09-19 03:45:00,59.5,43.3,29.80,NNW,342,0.0,0.0,55,0.00,,CLR,0.00,VWS V14.01,2013-09-19 10:45:00,
2013-09-19 03:50:00,59.3,43.6,29.79,NNW,342,0.0,0.0,56,0.00,,CLR,0.00,VWS V14.01,2013-09-19 10:50:00,
2013-09-19 03:55:00,59.4,43.7,29.79,NNW,342,0.0,0.0,56,0.00,,CLR,0.00,VWS V14.01,2013-09-19 10:55:00,
2013-09-19 04:00:00,59.3,43.6,29.79,NNW,342,1.0,1.0,56,0.00,,CLR,0.00,VWS V14.01,2013-09-19 11:00:00,
2013-09-19 04:06:00,59.2,43.5,29.79,NNW,342,0.0,0.0,56,0.00,,CLR,0.00,VWS V14.01,2013-09-19 11:06:00,
2013-09-19 04:11:00,59.2,44.0,29.79,NNW,342,0.0,0.0,57,0.00,,CLR,0.00,VWS V14.01,2013-09-19 11:11:00,
2013-09-19 04:16:00,59.1,43.9,29.79,NNW,342,0.0,0.0,57,0.00,,CLR,0.00,VWS V14.01,2013-09-19 11:16:00,
2013-09-19 04:21:00,59.1,43.4,29.79,NNW,342,0.0,0.0,56,0.00,,CLR,0.00,VWS V14.01,2013-09-19 11:21:00,
2013-09-19 04:26:00,59.0,43.8,29.80,NNW,342,0.0,0.0,57,0.00,,CLR,0.00,VWS V14.01,2013-09-19 11:26:00,
2013-09-19 04:31:00,58.7,43.1,29.80,NNW,342,0.0,0.0,56,0.00,,CLR,0.00,VWS V14.01,2013-09-19 11:31:00,
2013-09-19 04:36:00,58.3,42.7,29.80,NNW,342,0.0,0.0,56,0.00,,CLR,0.00,VWS V14.01,2013-09-19 11:36:00,
2013-09-19 04:41:00,58.0,41.9,29.80,NNW,342,0.0,0.0,55,0.00,,CLR,0.00,VWS V14.01,2013-09-19 11:41:00,
2013-09-19 04:46:00,57.6,41.6,29.80,NNW,342,0.0,0.0,55,0.00,,CLR,0.00,VWS V14.01,2013-09-19 11:46:00,
2013-09-19 04:51:00,57.4,41.8,29.80,NNW,342,0.0,0.0,56,0.00,,CLR,0.00,VWS V14.01,2013-09-19 11:51:00,
2013-09-19 04:56:00,57.3,41.8,29.80,NNW,342,0.0,0.0,56,0.00,,CLR,0.00,VWS V14.01,2013-09-19 11:56:00,
2013-09-19 05:00:00,59.3,43.6,29.79,NNW,342,0.0,0.0,56,0.00,,-RA,0.00,VWS V15.00,2013-09-19 12:00:00,
2013-09-19 05:01:00,57.1,42.0,29.81,NNW,342,0.0,0.0,57,0.00,,CLR,0.00,VWS V14.01,2013-09-19 12:01:00,
2013-09-19 05:06:00,57.0,42.4,29.80,NNW,342,1.0,1.0,58,0.00,,CLR,0.00,VWS V14.01,2013-09-19 12:06:00,
2013-09-19 05:12:00,56.7,42.1,29.80,NNW,342,0.0,0.0,58,0.00,,CLR,0.00,VWS V14.01,2013-09-19 12:12:00,
2013-09-19 05:17:00,56.6,42.0,29.81,NNW,342,0.0,0.0,58,0.00,,CLR,0.00,VWS V14.01,2013-09-19 12:17:00,
2013-09-19 05:22:00,56.5,41.9,29.80,NNW,342,0.0,0.0,58,0.00,,CLR,0.00,VWS V14.01,2013-09-19 12:22:00,
2013-09-19 05:27:00,56.4,41.8,29.81,NNW,342,0.0,0.0,58,0.00,,CLR,0.00,VWS V14.01,2013-09-19 12:27:00,
2013-09-19 05:32:00,56.3,41.7,29.81,NNW,342,0.0,0.0,58,0.00,,CLR,0.00,VWS V14.01,2013-09-19 12:32:00,
2013-09-19 05:37:00,56.1,42.0,29.81,NNW,342,0.0,0.0,59,0.00,,CLR,0.00,VWS V14.01,2013-09-19 12:37:00,
2013-09-19 05:42:00,55.9,41.8,29.81,NNW,342,0.0,0.0,59,0.00,,CLR,0.00,VWS V14.01,2013-09-19 12:42:00,
2013-09-19 05:47:00,55.6,42.0,29.81,NNW,342,0.0,0.0,60,0.00,,CLR,0.00,VWS V14.01,2013-09-19 12:47:00,
2013-09-19 05:52:00,55.3,41.7,29.81,NNW,342,0.0,0.0,60,0.00,,CLR,0.00,VWS V14.01,2013-09-19 12:52:00,
2013-09-19 05:57:00,55.0,41.8,29.81,NNW,342,0.0,0.0,61,0.00,,CLR,0.00,VWS V14.01,2013-09-19 12:57:00,
2013-09-19 06:00:00,57.1,42.0,29.81,NNW,342,0.0,0.0,57,0.00,,-RA,0.00,VWS V15.00,2013-09-19 13:00:00,
2013-09-19 06:02:00,54.6,41.9,29.81,NNW,342,0.0,0.0,62,0.00,,CLR,0.00,VWS V14.01,2013-09-19 13:02:00,
2013-09-19 06:07:00,54.2,41.5,29.81,NNW,342,1.0,1.0,62,0.00,,CLR,0.00,VWS V14.01,2013-09-19 13:07:00,
2013-09-19 06:12:00,54.0,41.3,29.81,NNW,342,1.0,1.0,62,0.00,,CLR,0.00,VWS V14.01,2013-09-19 13:12:00,
2013-09-19 06:17:00,54.0,41.7,29.82,NNW,342,0.0,0.0,63,0.00,,CLR,0.00,VWS V14.01,2013-09-19 13:17:00,
2013-09-19 06:23:00,54.3,42.0,29.82,NNW,342,0.0,0.0,63,0.00,,CLR,0.00,VWS V14.01,2013-09-19 13:23:00,
2013-09-19 06:28:00,54.3,41.6,29.82,NNW,342,0.0,0.0,62,0.00,,CLR,0.00,VWS V14.01,2013-09-19 13:28:00,
2013-09-19 06:33:00,54.4,41.7,29.82,NNW,342,0.0,0.0,62,0.00,,CLR,0.00,VWS V14.01,2013-09-19 13:33:00,
2013-09-19 06:38:00,54.4,41.7,29.82,NNW,342,0.0,0.0,62,0.00,,CLR,0.00,VWS V14.01,2013-09-19 13:38:00,
2013-09-19 06:43:00,54.3,42.0,29.82,NNW,342,0.0,0.0,63,0.00,,CLR,0.00,VWS V14.01,2013-09-19 13:43:00,
2013-09-19 06:48:00,54.2,41.9,29.82,NNW,342,0.0,0.0,63,0.00,,CLR,0.00,VWS V14.01,2013-09-19 13:48:00,
2013-09-19 06:53:00,54.1,42.2,29.82,NNW,342,0.0,0.0,64,0.00,,CLR,0.00,VWS V14.01,2013-09-19 13:53:00,
2013-09-19 06:58:00,54.0,42.1,29.82,NNW,342,0.0,0.0,64,0.00,,CLR,0.00,VWS V14.01,2013-09-19 13:58:00,
2013-09-19 07:00:00,54.8,42.0,29.81,NNW,342,0.0,0.0,62,0.00,,-RA,0.00,VWS V15.00,2013-09-19 14:00:00,
2013-09-19 07:03:00,53.8,41.9,29.83,NNW,342,0.0,0.0,64,0.00,,CLR,0.00,VWS V14.01,2013-09-19 14:03:00,
2013-09-19 07:08:00,53.9,42.0,29.83,NNW,342,0.0,0.0,64,0.00,,CLR,0.00,VWS V14.01,2013-09-19 14:08:00,
2013-09-19 07:13:00,54.2,42.3,29.83,NNW,342,0.0,0.0,64,0.00,,CLR,0.00,VWS V14.01,2013-09-19 14:13:00,
2013-09-19 07:18:00,54.7,42.8,29.83,NNW,342,0.0,0.0,64,0.00,,CLR,0.00,VWS V14.01,2013-09-19 14:18:00,
2013-09-19 07:23:00,54.9,42.6,29.83,NNW,342,0.0,0.0,63,0.00,,CLR,0.00,VWS V14.01,2013-09-19 14:23:00,
2013-09-19 07:28:00,55.4,43.0,29.83,NNW,342,0.0,0.0,63,0.00,,CLR,0.00,VWS V14.01,2013-09-19 14:28:00,
2013-09-19 07:33:00,55.9,43.1,29.84,NNW,342,0.0,0.0,62,0.00,,CLR,0.00,VWS V14.01,2013-09-19 14:33:00,
2013-09-19 07:38:00,56.2,43.0,29.84,NNW,342,0.0,0.0,61,0.00,,CLR,0.00,VWS V14.01,2013-09-19 14:38:00,
2013-09-19 07:44:00,56.5,42.8,29.84,NNW,342,0.0,0.0,60,0.00,,CLR,0.00,VWS V14.01,2013-09-19 14:44:00,
2013-09-19 07:49:00,57.4,43.6,29.84,NNW,342,0.0,0.0,60,0.00,,CLR,0.00,VWS V14.01,2013-09-19 14:49:00,
2013-09-19 07:54:00,58.3,44.0,29.84,NNW,342,0.0,0.0,59,0.00,,CLR,0.00,VWS V14.01,2013-09-19 14:54:00,
2013-09-19 07:59:00,59.4,44.6,29.84,NNW,342,0.0,0.0,58,0.00,,CLR,0.00,VWS V14.01,2013-09-19 14:59:00,
2013-09-19 08:00:00,53.9,42.0,29.83,NNW,342,0.0,0.0,64,0.00,,-RA,0.00,VWS V15.00,2013-09-19 15:00:00,
2013-09-19 08:04:00,60.3,44.6,29.83,NNW,342,0.0,0.0,56,0.00,,CLR,0.00,VWS V14.01,2013-09-19 15:04:00,
2013-09-19 08:09:00,61.3,45.0,29.84,NNW,342,0.0,0.0,55,0.00,,CLR,0.00,VWS V14.01,2013-09-19 15:09:00,
2013-09-19 08:14:00,62.0,44.7,29.84,NNW,342,0.0,0.0,53,0.00,,CLR,0.00,VWS V14.01,2013-09-19 15:14:00,
2013-09-19 08:19:00,62.7,45.3,29.83,NNW,342,0.0,0.0,53,0.00,,CLR,0.00,VWS V14.01,2013-09-19 15:19:00,
2013-09-19 08:24:00,63.6,45.7,29.83,NNW,342,0.0,0.0,52,0.00,,CLR,0.00,VWS V14.01,2013-09-19 15:24:00,
2013-09-19 08:29:00,64.5,46.0,29.84,NNW,342,0.0,0.0,51,0.00,,CLR,0.00,VWS V14.01,2013-09-19 15:29:00,
2013-09-19 08:34:00,65.5,45.8,29.84,NNW,342,0.0,0.0,49,0.00,,CLR,0.00,VWS V14.01,2013-09-19 15:34:00,
2013-09-19 08:39:00,66.3,45.5,29.84,NNW,342,0.0,0.0,47,0.00,,CLR,0.00,VWS V14.01,2013-09-19 15:39:00,
2013-09-19 08:44:00,67.5,44.2,29.84,NNW,342,0.0,0.0,43,0.00,,CLR,0.00,VWS V14.01,2013-09-19 15:44:00,
2013-09-19 08:49:00,68.3,44.3,29.84,NNW,342,0.0,0.0,42,0.00,,CLR,0.00,VWS V14.01,2013-09-19 15:49:00,
2013-09-19 08:54:00,68.9,44.2,29.84,NNW,342,0.0,0.0,41,0.00,,CLR,0.00,VWS V14.01,2013-09-19 15:54:00,
2013-09-19 09:00:00,69.5,42.8,29.84,NNW,342,0.0,0.0,38,0.00,,CLR,0.00,VWS V14.01,2013-09-19 16:00:00,
2013-09-19 09:05:00,70.0,41.8,29.84,NNW,342,0.0,0.0,36,0.00,,CLR,0.00,VWS V14.01,2013-09-19 16:05:00,
2013-09-19 09:10:00,70.2,42.7,29.84,NNW,342,0.0,0.0,37,0.00,,CLR,0.00,VWS V14.01,2013-09-19 16:10:00,
2013-09-19 09:15:00,70.1,41.9,29.84,NNW,342,1.0,1.0,36,0.00,,CLR,0.00,VWS V14.01,2013-09-19 16:15:00,
2013-09-19 09:20:00,70.1,42.7,29.85,NNW,342,1.0,1.0,37,0.00,,CLR,0.00,VWS V14.01,2013-09-19 16:20:00,
2013-09-19 09:25:00,70.4,42.2,29.84,NNW,342,0.0,0.0,36,0.00,,CLR,0.00,VWS V14.01,2013-09-19 16:25:00,
2013-09-19 09:30:00,71.3,42.3,29.84,NNW,342,2.0,2.0,35,0.00,,CLR,0.00,VWS V14.01,2013-09-19 16:30:00,
2013-09-19 09:35:00,71.4,41.6,29.85,NNW,342,1.0,1.0,34,0.00,,CLR,0.00,VWS V14.01,2013-09-19 16:35:00,
2013-09-19 09:40:00,72.2,41.5,29.85,NNW,342,0.0,0.0,33,0.00,,CLR,0.00,VWS V14.01,2013-09-19 16:40:00,
2013-09-19 09:45:00,72.5,41.8,29.85,NNW,342,1.0,1.0,33,0.00,,CLR,0.00,VWS V14.01,2013-09-19 16:45:00,
2013-09-19 09:50:00,73.3,42.5,29.85,NNW,345,0.0,0.0,33,0.00,,CLR,0.00,VWS V14.01,2013-09-19 16:50:00,
2013-09-19 09:55:00,73.0,41.4,29.85,SW,223,1.0,1.0,32,0.00,,CLR,0.00,VWS V14.01,2013-09-19 16:55:00,
2013-09-19 10:00:00,73.3,41.7,29.85,SE,134,1.0,1.0,32,0.00,,CLR,0.00,VWS V14.01,2013-09-19 17:00:00,
2013-09-19 10:05:00,73.8,42.1,29.85,SE,134,2.0,2.0,32,0.00,,CLR,0.00,VWS V14.01,2013-09-19 17:05:00,
2013-09-19 10:11:00,73.3,40.9,29.85,SSW,199,4.0,4.0,31,0.00,,CLR,0.00,VWS V14.01,2013-09-19 17:11:00,
2013-09-19 10:16:00,74.1,42.4,29.85,SSW,198,0.0,0.0,32,0.00,,CLR,0.00,VWS V14.01,2013-09-19 17:16:00,
2013-09-19 10:21:00,75.6,40.2,29.85,SE,138,3.0,3.0,28,0.00,,CLR,0.00,VWS V14.01,2013-09-19 17:21:00,
2013-09-19 10:26:00,76.6,41.1,29.85,SE,138,2.0,2.0,28,0.00,,CLR,0.00,VWS V14.01,2013-09-19 17:26:00,
2013-09-19 10:31:00,76.9,40.4,29.85,SE,139,3.0,3.0,27,0.00,,CLR,0.00,VWS V14.01,2013-09-19 17:31:00,
2013-09-19 10:36:00,76.1,39.7,29.85,SE,139,1.0,1.0,27,0.00,,CLR,0.00,VWS V14.01,2013-09-19 17:36:00,
2013-09-19 10:41:00,76.5,41.0,29.85,SE,139,2.0,2.0,28,0.00,,CLR,0.00,VWS V14.01,2013-09-19 17:41:00,
2013-09-19 10:46:00,76.7,40.2,29.85,SE,139,2.0,2.0,27,0.00,,CLR,0.00,VWS V14.01,2013-09-19 17:46:00,
2013-09-19 10:51:00,77.1,40.6,29.85,SE,139,1.0,1.0,27,0.00,,CLR,0.00,VWS V14.01,2013-09-19 17:51:00,
2013-09-19 10:56:00,77.5,40.0,29.85,SE,139,0.0,0.0,26,0.00,,CLR,0.00,VWS V14.01,2013-09-19 17:56:00,
2013-09-19 11:00:00,73.2,41.6,29.84,SE,134,2.0,2.0,32,0.00,,-RA,0.00,VWS V15.00,2013-09-19 18:00:00,
2013-09-19 11:01:00,79.4,40.5,29.84,ESE,123,4.0,4.0,25,0.00,,CLR,0.00,VWS V14.01,2013-09-19 18:01:00,
2013-09-19 11:06:00,79.7,40.8,29.85,ESE,123,3.0,3.0,25,0.00,,CLR,0.00,VWS V14.01,2013-09-19 18:06:00,
2013-09-19 11:11:00,78.7,41.0,29.85,SE,136,0.0,0.0,26,0.00,,CLR,0.00,VWS V14.01,2013-09-19 18:11:00,
2013-09-19 11:16:00,78.7,41.9,29.84,SE,136,2.0,2.0,27,0.00,,CLR,0.00,VWS V14.01,2013-09-19 18:16:00,
2013-09-19 11:22:00,78.8,39.0,29.84,SE,140,2.0,2.0,24,0.00,,CLR,0.00,VWS V14.01,2013-09-19 18:22:00,
2013-09-19 11:27:00,79.2,38.2,29.84,SSE,156,3.0,3.0,23,0.00,,CLR,0.00,VWS V14.01,2013-09-19 18:27:00,
2013-09-19 11:32:00,80.2,38.0,29.84,SSE,156,1.0,1.0,22,0.00,,CLR,0.00,VWS V14.01,2013-09-19 18:32:00,
2013-09-19 11:37:00,81.2,37.6,29.84,East,99,3.0,3.0,21,0.00,,CLR,0.00,VWS V14.01,2013-09-19 18:37:00,
2013-09-19 11:42:00,82.4,38.6,29.84,East,95,4.0,4.0,21,0.00,,CLR,0.00,VWS V14.01,2013-09-19 18:42:00,
2013-09-19 11:47:00,82.5,38.7,29.84,ESE,111,4.0,4.0,21,0.00,,CLR,0.00,VWS V14.01,2013-09-19 18:47:00,
2013-09-19 11:52:00,82.8,37.7,29.84,ESE,113,4.0,4.0,20,0.00,,CLR,0.00,VWS V14.01,2013-09-19 18:52:00,
2013-09-19 11:57:00,82.9,36.5,29.84,ESE,119,1.0,1.0,19,0.00,,CLR,0.00,VWS V14.01,2013-09-19 18:57:00,
2013-09-19 12:00:00,79.1,40.3,29.84,SE,138,2.0,2.0,25,0.00,,-RA,0.00,VWS V15.00,2013-09-19 19:00:00,
2013-09-19 12:02:00,83.9,37.3,29.84,East,96,6.0,6.0,19,0.00,,CLR,0.00,VWS V14.01,2013-09-19 19:02:00,
2013-09-19 12:07:00,84.2,36.2,29.83,East,95,1.0,1.0,18,0.00,,CLR,0.00,VWS V14.01,2013-09-19 19:07:00,
2013-09-19 12:12:00,83.9,37.3,29.83,East,97,0.0,0.0,19,0.00,,CLR,0.00,VWS V14.01,2013-09-19 19:12:00,
2013-09-19 12:17:00,84.5,37.8,29.83,East,97,2.0,2.0,19,0.00,,CLR,0.00,VWS V14.01,2013-09-19 19:17:00,
2013-09-19 12:22:00,84.1,38.7,29.83,NE,40,0.0,0.0,20,0.00,,CLR,0.00,VWS V14.01,2013-09-19 19:22:00,
2013-09-19 12:27:00,83.7,39.7,29.83,NW,312,5.0,5.0,21,0.00,,CLR,0.00,VWS V14.01,2013-09-19 19:27:00,
2013-09-19 12:32:00,82.4,38.6,29.83,NW,308,4.0,4.0,21,0.00,,CLR,0.00,VWS V14.01,2013-09-19 19:32:00,
2013-09-19 12:37:00,82.2,39.6,29.82,NW,308,0.0,0.0,22,0.00,,CLR,0.00,VWS V14.01,2013-09-19 19:37:00,
2013-09-19 12:42:00,84.0,39.9,29.82,North,0,3.0,3.0,21,0.00,,CLR,0.00,VWS V14.01,2013-09-19 19:42:00,
2013-09-19 12:48:00,86.1,39.1,29.82,North,0,3.0,3.0,19,0.00,,CLR,0.00,VWS V14.01,2013-09-19 19:48:00,
2013-09-19 12:53:00,85.7,38.7,29.82,North,0,3.0,3.0,19,0.00,,CLR,0.00,VWS V14.01,2013-09-19 19:53:00,
2013-09-19 12:58:00,85.8,38.8,29.82,South,182,2.0,2.0,19,0.00,,CLR,0.00,VWS V14.01,2013-09-19 19:58:00,
2013-09-19 13:00:00,83.4,36.9,29.84,ESE,108,4.0,4.0,19,0.00,,-RA,0.00,VWS V15.00,2013-09-19 20:00:00,
2013-09-19 13:03:00,85.4,38.5,29.81,South,182,0.0,0.0,19,0.00,,CLR,0.00,VWS V14.01,2013-09-19 20:03:00,
2013-09-19 13:08:00,85.6,37.3,29.81,SSW,193,3.0,3.0,18,0.00,,CLR,0.00,VWS V14.01,2013-09-19 20:08:00,
2013-09-19 13:13:00,85.3,38.4,29.81,SSW,200,1.0,1.0,19,0.00,,CLR,0.00,VWS V14.01,2013-09-19 20:13:00,
2013-09-19 13:18:00,87.3,38.7,29.81,SSW,200,1.0,1.0,18,0.00,,CLR,0.00,VWS V14.01,2013-09-19 20:18:00,
2013-09-19 13:23:00,86.2,36.3,29.81,SSE,159,6.0,6.0,17,0.00,,CLR,0.00,VWS V14.01,2013-09-19 20:23:00,
2013-09-19 13:28:00,86.0,37.6,29.81,SSW,203,3.0,3.0,18,0.00,,CLR,0.00,VWS V14.01,2013-09-19 20:28:00,
2013-09-19 13:33:00,87.2,35.6,29.81,SE,125,4.0,4.0,16,0.00,,CLR,0.00,VWS V14.01,2013-09-19 20:33:00,
2013-09-19 13:38:00,88.1,37.8,29.80,South,184,4.0,4.0,17,0.00,,CLR,0.00,VWS V14.01,2013-09-19 20:38:00,
2013-09-19 13:43:00,87.5,37.4,29.80,SSE,150,3.0,3.0,17,0.00,,CLR,0.00,VWS V14.01,2013-09-19 20:43:00,
2013-09-19 13:48:00,88.8,35.2,29.80,SE,138,3.0,3.0,15,0.00,,CLR,0.00,VWS V14.01,2013-09-19 20:48:00,
2013-09-19 13:54:00,90.1,36.3,29.79,SE,136,2.0,2.0,15,0.00,,CLR,0.00,VWS V14.01,2013-09-19 20:54:00,
2013-09-19 13:59:00,90.5,36.6,29.79,NE,39,3.0,3.0,15,0.00,,CLR,0.00,VWS V14.01,2013-09-19 20:59:00,
2013-09-19 14:00:00,85.8,38.8,29.82,South,182,3.0,3.0,19,0.00,,-RA,0.00,VWS V15.00,2013-09-19 21:00:00,
2013-09-19 14:04:00,91.2,37.2,29.79,NE,39,2.0,2.0,15,0.00,,CLR,0.00,VWS V14.01,2013-09-19 21:04:00,
2013-09-19 14:09:00,91.4,35.6,29.78,NNE,20,4.0,4.0,14,0.00,,CLR,0.00,VWS V14.01,2013-09-19 21:09:00,
2013-09-19 14:14:00,90.5,36.6,29.78,NNE,20,1.0,1.0,15,0.00,,CLR,0.00,VWS V14.01,2013-09-19 21:14:00,
2013-09-19 14:19:00,90.2,36.3,29.78,NNE,20,0.0,0.0,15,0.00,,CLR,0.00,VWS V14.01,2013-09-19 21:19:00,
2013-09-19 14:24:00,90.8,36.8,29.78,NNE,16,3.0,3.0,15,0.00,,CLR,0.00,VWS V14.01,2013-09-19 21:24:00,
2013-09-19 14:29:00,90.1,36.3,29.78,NNE,24,3.0,3.0,15,0.00,,CLR,0.00,VWS V14.01,2013-09-19 21:29:00,
2013-09-19 14:34:00,89.3,35.6,29.78,SSE,165,3.0,3.0,15,0.00,,CLR,0.00,VWS V14.01,2013-09-19 21:34:00,
2013-09-19 14:39:00,89.2,35.6,29.77,SSE,157,1.0,1.0,15,0.00,,CLR,0.00,VWS V14.01,2013-09-19 21:39:00,
2013-09-19 14:44:00,89.7,36.0,29.77,SSE,157,2.0,2.0,15,0.00,,CLR,0.00,VWS V14.01,2013-09-19 21:44:00,
2013-09-19 14:49:00,89.6,35.9,29.77,WSW,238,2.0,2.0,15,0.00,,CLR,0.00,VWS V14.01,2013-09-19 21:49:00,
2013-09-19 14:54:00,89.7,36.0,29.77,SSW,193,5.0,5.0,15,0.00,,CLR,0.00,VWS V14.01,2013-09-19 21:54:00,
2013-09-19 15:00:00,88.7,35.2,29.77,South,188,1.0,1.0,15,0.00,,CLR,0.00,VWS V14.01,2013-09-19 22:00:00,
2013-09-19 15:05:00,89.6,35.9,29.77,ESE,106,4.0,4.0,15,0.00,,CLR,0.00,VWS V14.01,2013-09-19 22:05:00,
2013-09-19 15:10:00,89.2,35.6,29.76,South,169,4.0,4.0,15,0.00,,CLR,0.00,VWS V14.01,2013-09-19 22:10:00,
2013-09-19 15:15:00,88.8,35.2,29.76,South,173,4.0,4.0,15,0.00,,CLR,0.00,VWS V14.01,2013-09-19 22:15:00,
2013-09-19 15:20:00,90.0,34.5,29.76,ESE,105,6.0,6.0,14,0.00,,CLR,0.00,VWS V14.01,2013-09-19 22:20:00,
2013-09-19 15:25:00,91.0,35.2,29.76,ESE,105,0.0,0.0,14,0.00,,CLR,0.00,VWS V14.01,2013-09-19 22:25:00,
2013-09-19 15:30:00,92.0,37.8,29.76,ESE,105,0.0,0.0,15,0.00,,CLR,0.00,VWS V14.01,2013-09-19 22:30:00,
2013-09-19 15:35:00,91.7,35.8,29.76,SE,135,4.0,4.0,14,0.00,,CLR,0.00,VWS V14.01,2013-09-19 22:35:00,
2013-09-19 15:40:00,91.2,37.2,29.75,SSE,155,4.0,4.0,15,0.00,,CLR,0.00,VWS V14.01,2013-09-19 22:40:00,
2013-09-19 15:45:00,90.6,36.7,29.75,South,174,8.0,8.0,15,0.00,,CLR,0.00,VWS V14.01,2013-09-19 22:45:00,
2013-09-19 15:50:00,90.0,36.2,29.75,South,181,7.0,7.0,15,0.00,,CLR,0.00,VWS V14.01,2013-09-19 22:50:00,
2013-09-19 15:55:00,89.7,36.0,29.75,South,169,3.0,3.0,15,0.00,,CLR,0.00,VWS V14.01,2013-09-19 22:55:00,
2013-09-19 16:00:00,89.9,36.1,29.75,South,170,3.0,3.0,15,0.00,,CLR,0.00,VWS V14.01,2013-09-19 23:00:00,
2013-09-19 16:05:00,90.5,36.6,29.75,South,169,5.0,5.0,15,0.00,,CLR,0.00,VWS V14.01,2013-09-19 23:05:00,
2013-09-19 16:11:00,90.0,36.2,29.74,East,96,4.0,4.0,15,0.00,,CLR,0.00,VWS V14.01,2013-09-19 23:11:00,
2013-09-19 16:16:00,91.0,35.2,29.74,East,96,2.0,2.0,14,0.00,,CLR,0.00,VWS V14.01,2013-09-19 23:16:00,
2013-09-19 16:21:00,92.0,36.0,29.74,East,96,0.0,0.0,14,0.00,,CLR,0.00,VWS V14.01,2013-09-19 23:21:00,
2013-09-19 16:26:00,92.5,34.6,29.74,East,96,0.0,0.0,13,0.00,,CLR,0.00,VWS V14.01,2013-09-19 23:26:00,
2013-09-19 16:31:00,92.7,34.7,29.74,East,96,0.0,0.0,13,0.00,,CLR,0.00,VWS V14.01,2013-09-19 23:31:00,
2013-09-19 16:36:00,92.8,36.7,29.74,East,96,2.0,2.0,14,0.00,,CLR,0.00,VWS V14.01,2013-09-19 23:36:00,
2013-09-19 16:41:00,92.6,38.3,29.74,East,96,0.0,0.0,15,0.00,,CLR,0.00,VWS V14.01,2013-09-19 23:41:00,
2013-09-19 16:46:00,92.1,37.9,29.73,East,95,3.0,3.0,15,0.00,,CLR,0.00,VWS V14.01,2013-09-19 23:46:00,
2013-09-19 16:51:00,92.5,39.8,29.73,East,95,1.0,1.0,16,0.00,,CLR,0.00,VWS V14.01,2013-09-19 23:51:00,
2013-09-19 16:56:00,93.0,36.8,29.73,South,185,4.0,4.0,14,0.00,,CLR,0.00,VWS V14.01,2013-09-19 23:56:00,
2013-09-19 17:00:00,89.8,36.0,29.75,South,170,3.0,3.0,15,0.00,,-RA,0.00,VWS V15.00,2013-09-20 00:00:00,
2013-09-19 17:01:00,92.0,37.8,29.73,SSW,192,4.0,4.0,15,0.00,,CLR,0.00,VWS V14.01,2013-09-20 00:01:00,
2013-09-19 17:06:00,91.5,37.4,29.73,SSW,209,3.0,3.0,15,0.00,,CLR,0.00,VWS V14.01,2013-09-20 00:06:00,
2013-09-19 17:11:00,91.3,37.2,29.73,SSW,210,5.0,5.0,15,0.00,,CLR,0.00,VWS V14.01,2013-09-20 00:11:00,
2013-09-19 17:17:00,91.0,37.0,29.72,SW,218,2.0,2.0,15,0.00,,CLR,0.00,VWS V14.01,2013-09-20 00:17:00,
2013-09-19 17:22:00,90.5,36.6,29.73,SW,223,0.0,0.0,15,0.00,,CLR,0.00,VWS V14.01,2013-09-20 00:22:00,
2013-09-19 17:27:00,90.8,36.8,29.72,SW,223,3.0,3.0,15,0.00,,CLR,0.00,VWS V14.01,2013-09-20 00:27:00,
2013-09-19 17:32:00,91.1,37.1,29.72,SW,224,2.0,2.0,15,0.00,,CLR,0.00,VWS V14.01,2013-09-20 00:32:00,
2013-09-19 17:37:00,91.0,37.0,29.72,SW,224,4.0,4.0,15,0.00,,CLR,0.00,VWS V14.01,2013-09-20 00:37:00,
2013-09-19 17:42:00,90.6,38.3,29.72,SW,228,5.0,5.0,16,0.00,,CLR,0.00,VWS V14.01,2013-09-20 00:42:00,
2013-09-19 17:47:00,89.9,39.3,29.72,WSW,243,4.0,4.0,17,0.00,,CLR,0.00,VWS V14.01,2013-09-20 00:47:00,
2013-09-19 17:52:00,89.9,39.3,29.72,WSW,240,3.0,3.0,17,0.00,,CLR,0.00,VWS V14.01,2013-09-20 00:52:00,
2013-09-19 17:57:00,89.7,39.1,29.73,SW,236,4.0,4.0,17,0.00,,CLR,0.00,VWS V14.01,2013-09-20 00:57:00,
2013-09-19 18:00:00,92.1,37.9,29.73,South,189,3.0,3.0,15,0.00,,-RA,0.00,VWS V15.00,2013-09-20 01:00:00,
2013-09-19 18:02:00,89.5,40.5,29.72,WSW,244,1.0,1.0,18,0.00,,CLR,0.00,VWS V14.01,2013-09-20 01:02:00,
2013-09-19 18:07:00,89.0,40.0,29.72,West,266,4.0,4.0,18,0.00,,CLR,0.00,VWS V14.01,2013-09-20 01:07:00,
2013-09-19 18:12:00,88.3,40.9,29.72,West,270,3.0,3.0,19,0.00,,CLR,0.00,VWS V14.01,2013-09-20 01:12:00,
2013-09-19 18:18:00,88.2,40.8,29.72,West,277,4.0,4.0,19,0.00,,CLR,0.00,VWS V14.01,2013-09-20 01:18:00,
2013-09-19 18:23:00,88.0,40.6,29.72,West,280,1.0,1.0,19,0.00,,CLR,0.00,VWS V14.01,2013-09-20 01:23:00,
2013-09-19 18:28:00,87.9,40.5,29.72,West,280,3.0,3.0,19,0.00,,CLR,0.00,VWS V14.01,2013-09-20 01:28:00,
2013-09-19 18:33:00,87.7,40.4,29.72,West,280,2.0,2.0,19,0.00,,CLR,0.00,VWS V14.01,2013-09-20 01:33:00,
2013-09-19 18:38:00,87.7,40.4,29.72,West,280,1.0,1.0,19,0.00,,CLR,0.00,VWS V14.01,2013-09-20 01:38:00,
2013-09-19 18:43:00,87.9,40.5,29.72,West,280,2.0,2.0,19,0.00,,CLR,0.00,VWS V14.01,2013-09-20 01:43:00,
2013-09-19 18:48:00,87.2,40.0,29.72,West,280,2.0,2.0,19,0.00,,CLR,0.00,VWS V14.01,2013-09-20 01:48:00,
2013-09-19 18:53:00,86.4,39.3,29.72,West,280,1.0,1.0,19,0.00,,CLR,0.00,VWS V14.01,2013-09-20 01:53:00,
2013-09-19 18:58:00,85.9,38.9,29.72,West,280,0.0,0.0,19,0.00,,CLR,0.00,VWS V14.01,2013-09-20 01:58:00,
2013-09-19 19:00:00,89.5,39.0,29.72,WSW,242,3.0,3.0,17,0.00,,-RA,0.00,VWS V15.00,2013-09-20 02:00:00,
2013-09-19 19:03:00,85.6,40.0,29.71,West,280,0.0,0.0,20,0.00,,CLR,0.00,VWS V14.01,2013-09-20 02:03:00,
2013-09-19 19:08:00,85.1,39.6,29.71,West,280,0.0,0.0,20,0.00,,CLR,0.00,VWS V14.01,2013-09-20 02:08:00,
2013-09-19 19:14:00,84.5,40.3,29.71,West,280,0.0,0.0,21,0.00,,CLR,0.00,VWS V14.01,2013-09-20 02:14:00,
2013-09-19 19:19:00,84.1,40.0,29.71,West,280,0.0,0.0,21,0.00,,CLR,0.00,VWS V14.01,2013-09-20 02:19:00,
2013-09-19 19:24:00,83.7,40.9,29.71,West,280,0.0,0.0,22,0.00,,CLR,0.00,VWS V14.01,2013-09-20 02:24:00,
2013-09-19 19:29:00,83.0,42.5,29.71,West,280,0.0,0.0,24,0.00,,CLR,0.00,VWS V14.01,2013-09-20 02:29:00,
2013-09-19 19:34:00,82.3,41.9,29.71,West,280,0.0,0.0,24,0.00,,CLR,0.00,VWS V14.01,2013-09-20 02:34:00,
2013-09-19 19:39:00,81.7,41.4,29.71,West,280,0.0,0.0,24,0.00,,CLR,0.00,VWS V14.01,2013-09-20 02:39:00,
2013-09-19 19:44:00,81.2,41.0,29.71,West,280,0.0,0.0,24,0.00,,CLR,0.00,VWS V14.01,2013-09-20 02:44:00,
2013-09-19 19:49:00,80.6,43.6,29.71,West,280,0.0,0.0,27,0.00,,CLR,0.00,VWS V14.01,2013-09-20 02:49:00,
2013-09-19 19:54:00,80.0,43.0,29.71,West,280,2.0,2.0,27,0.00,,CLR,0.00,VWS V14.01,2013-09-20 02:54:00,
2013-09-19 19:59:00,79.5,42.6,29.71,West,280,2.0,2.0,27,0.00,,CLR,0.00,VWS V14.01,2013-09-20 02:59:00,
2013-09-19 20:00:00,85.8,38.8,29.71,West,280,0.0,0.0,19,0.00,,-RA,0.00,VWS V15.00,2013-09-20 03:00:00,
2013-09-19 20:04:00,79.1,42.3,29.71,West,280,2.0,2.0,27,0.00,,CLR,0.00,VWS V14.01,2013-09-20 03:04:00,
2013-09-19 20:10:00,78.8,42.0,29.71,West,280,2.0,2.0,27,0.00,,CLR,0.00,VWS V14.01,2013-09-20 03:10:00,
2013-09-19 20:15:00,78.4,43.5,29.71,West,280,2.0,2.0,29,0.00,,CLR,0.00,VWS V14.01,2013-09-20 03:15:00,
2013-09-19 20:20:00,77.9,44.0,29.71,West,280,2.0,2.0,30,0.00,,CLR,0.00,VWS V14.01,2013-09-20 03:20:00,
2013-09-19 20:25:00,77.6,43.7,29.71,West,280,1.0,1.0,30,0.00,,CLR,0.00,VWS V14.01,2013-09-20 03:25:00,
2013-09-19 20:30:00,77.3,44.3,29.71,West,280,2.0,2.0,31,0.00,,CLR,0.00,VWS V14.01,2013-09-20 03:30:00,
2013-09-19 20:35:00,77.1,45.0,29.72,West,280,3.0,3.0,32,0.00,,CLR,0.00,VWS V14.01,2013-09-20 03:35:00,
2013-09-19 20:40:00,76.8,44.7,29.72,West,280,3.0,3.0,32,0.00,,CLR,0.00,VWS V14.01,2013-09-20 03:40:00,
2013-09-19 20:45:00,76.3,45.1,29.72,WNW,285,4.0,4.0,33,0.00,,CLR,0.00,VWS V14.01,2013-09-20 03:45:00,
2013-09-19 20:51:00,76.0,44.8,29.72,WNW,290,2.0,2.0,33,0.00,,CLR,0.00,VWS V14.01,2013-09-20 03:51:00,
2013-09-19 20:56:00,75.5,45.2,29.72,NW,318,4.0,4.0,34,0.00,,CLR,0.00,VWS V14.01,2013-09-20 03:56:00,
2013-09-19 21:00:00,79.5,42.6,29.71,West,280,2.0,2.0,27,0.00,,-RA,0.00,VWS V15.00,2013-09-20 04:00:00,
2013-09-19 21:01:00,75.3,44.2,29.72,North,358,5.0,5.0,33,0.00,,CLR,0.00,VWS V14.01,2013-09-20 04:01:00,
2013-09-19 21:02:00,75.3,44.2,29.72,North,359,4.0,4.0,33,0.00,,CLR,0.00,VWS V14.01,2013-09-20 04:02:00,
2013-09-19 21:03:00,75.2,44.2,29.72,North,0,4.0,4.0,33,0.00,,CLR,0.00,VWS V14.01,2013-09-20 04:03:00,
2013-09-19 21:08:00,75.0,44.0,29.72,North,2,4.0,4.0,33,0.00,,CLR,0.00,VWS V14.01,2013-09-20 04:08:00,
2013-09-19 21:13:00,74.8,43.8,29.72,North,4,3.0,3.0,33,0.00,,CLR,0.00,VWS V14.01,2013-09-20 04:13:00,
2013-09-19 21:18:00,74.4,44.2,29.72,North,5,2.0,2.0,34,0.00,,CLR,0.00,VWS V14.01,2013-09-20 04:18:00,
2013-09-19 21:23:00,74.2,44.1,29.72,North,6,3.0,3.0,34,0.00,,CLR,0.00,VWS V14.01,2013-09-20 04:23:00,
2013-09-19 21:29:00,74.0,44.6,29.72,North,7,4.0,4.0,35,0.00,,CLR,0.00,VWS V14.01,2013-09-20 04:29:00,
2013-09-19 21:34:00,73.8,43.7,29.72,North,7,0.0,0.0,34,0.00,,CLR,0.00,VWS V14.01,2013-09-20 04:34:00,
2013-09-19 21:39:00,73.6,44.3,29.72,North,7,0.0,0.0,35,0.00,,CLR,0.00,VWS V14.01,2013-09-20 04:39:00,
2013-09-19 21:44:00,73.3,44.0,29.72,North,7,0.0,0.0,35,0.00,,CLR,0.00,VWS V14.01,2013-09-20 04:44:00,
2013-09-19 21:49:00,72.9,44.4,29.72,North,7,0.0,0.0,36,0.00,,CLR,0.00,VWS V14.01,2013-09-20 04:49:00,
2013-09-19 21:54:00,72.6,44.1,29.72,North,7,0.0,0.0,36,0.00,,CLR,0.00,VWS V14.01,2013-09-20 04:54:00,
2013-09-19 21:59:00,72.3,43.9,29.72,North,7,0.0,0.0,36,0.00,,CLR,0.00,VWS V14.01,2013-09-20 04:59:00,
2013-09-19 22:00:00,75.4,44.3,29.72,North,357,4.0,4.0,33,0.00,,-RA,0.00,VWS V15.00,2013-09-20 05:00:00,
2013-09-19 22:04:00,72.0,44.3,29.73,North,7,0.0,0.0,37,0.00,,CLR,0.00,VWS V14.01,2013-09-20 05:04:00,
2013-09-19 22:09:00,71.7,44.1,29.73,North,7,0.0,0.0,37,0.00,,CLR,0.00,VWS V14.01,2013-09-20 05:09:00,
2013-09-19 22:14:00,71.3,44.4,29.73,North,7,0.0,0.0,38,0.00,,CLR,0.00,VWS V14.01,2013-09-20 05:14:00,
2013-09-19 22:20:00,70.7,44.5,29.73,North,7,0.0,0.0,39,0.00,,CLR,0.00,VWS V14.01,2013-09-20 05:20:00,
2013-09-19 22:25:00,70.4,44.3,29.73,North,7,0.0,0.0,39,0.00,,CLR,0.00,VWS V14.01,2013-09-20 05:25:00,
2013-09-19 22:30:00,70.2,44.8,29.73,North,7,2.0,2.0,40,0.00,,CLR,0.00,VWS V14.01,2013-09-20 05:30:00,
2013-09-19 22:35:00,70.2,44.1,29.73,North,7,0.0,0.0,39,0.00,,CLR,0.00,VWS V14.01,2013-09-20 05:35:00,
2013-09-19 22:40:00,70.1,44.7,29.73,North,7,0.0,0.0,40,0.00,,CLR,0.00,VWS V14.01,2013-09-20 05:40:00,
2013-09-19 22:45:00,70.0,44.6,29.73,North,7,0.0,0.0,40,0.00,,CLR,0.00,VWS V14.01,2013-09-20 05:45:00,
2013-09-19 22:50:00,69.9,43.8,29.73,North,7,0.0,0.0,39,0.00,,CLR,0.00,VWS V14.01,2013-09-20 05:50:00,
2013-09-19 22:55:00,69.8,44.4,29.73,North,7,0.0,0.0,40,0.00,,CLR,0.00,VWS V14.01,2013-09-20 05:55:00,
2013-09-19 23:00:00,69.7,44.3,29.73,North,7,0.0,0.0,40,0.00,,CLR,0.00,VWS V14.01,2013-09-20 06:00:00,
2013-09-19 23:06:00,69.6,44.9,29.73,North,7,0.0,0.0,41,0.00,,CLR,0.00,VWS V14.01,2013-09-20 06:06:00,
2013-09-19 23:11:00,69.4,45.3,29.73,North,7,0.0,0.0,42,0.00,,CLR,0.00,VWS V14.01,2013-09-20 06:11:00,
2013-09-19 23:16:00,69.2,44.5,29.73,North,7,0.0,0.0,41,0.00,,CLR,0.00,VWS V14.01,2013-09-20 06:16:00,
2013-09-19 23:21:00,69.1,45.1,29.73,North,7,0.0,0.0,42,0.00,,CLR,0.00,VWS V14.01,2013-09-20 06:21:00,
2013-09-19 23:26:00,68.8,45.4,29.73,North,7,0.0,0.0,43,0.00,,CLR,0.00,VWS V14.01,2013-09-20 06:26:00,
2013-09-19 23:31:00,68.6,45.8,29.73,North,7,0.0,0.0,44,0.00,,CLR,0.00,VWS V14.01,2013-09-20 06:31:00,
2013-09-19 23:36:00,68.3,45.6,29.73,North,7,1.0,1.0,44,0.00,,CLR,0.00,VWS V14.01,2013-09-20 06:36:00,
2013-09-19 23:41:00,68.2,43.6,29.73,North,7,1.0,1.0,41,0.00,,CLR,0.00,VWS V14.01,2013-09-20 06:41:00,
2013-09-19 23:46:00,68.4,43.8,29.73,North,7,1.0,1.0,41,0.00,,CLR,0.00,VWS V14.01,2013-09-20 06:46:00,
2013-09-19 23:51:00,68.4,43.8,29.73,North,7,1.0,1.0,41,0.00,,CLR,0.00,VWS V14.01,2013-09-20 06:51:00,
2013-09-19 23:56:00,68.3,43.7,29.74,North,7,0.0,0.0,41,0.00,,CLR,0.00,VWS V14.01,2013-09-20 06:56:00,